TVP7412 EPWA-LGZA
Flight info
| Callsign | TVP7412 |
|---|---|
| Flight time | N/A |
| Altitude | 38000 |
| Route | EVINA DCT KUKAM DCT BABKO DCT PARAK/N0457F370 DCT REDVA UL616 KOGAT DCT BITLA UN731 YNN UT352 ASTUS |
| Aircraft | B38M/M-SDE3FGHIJ1RWXY/LB1 |
Departure
| Time | N/A |
|---|---|
| Airport | Warsaw Chopin Airport (EPWA) |
Arrival
| Time | 2026-05-01 07:42 |
|---|---|
| Airport | Zakynthos International Airport Dionysios Solomos (LGZA) |
| Time | Latitude | Longitude | Altitude | Speed | Heading |
|---|---|---|---|---|---|
| 2026-05-01 07:23 | 38.30664 | 20.03878 | 21987 ft | 357 kts | 214° |
| 2026-05-01 07:23 | 38.26230 | 20.01359 | 21177 ft | 357 kts | 208° |
| 2026-05-01 07:24 | 38.24682 | 20.00652 | 20923 ft | 360 kts | 206° |
| 2026-05-01 07:24 | 38.21453 | 19.99441 | 20384 ft | 369 kts | 201° |
| 2026-05-01 07:24 | 38.18930 | 19.98739 | 19974 ft | 372 kts | 197° |
| 2026-05-01 07:24 | 38.16368 | 19.98239 | 19566 ft | 373 kts | 193° |
| 2026-05-01 07:25 | 38.14655 | 19.98020 | 19296 ft | 373 kts | 191° |
| 2026-05-01 07:25 | 38.12056 | 19.97862 | 18875 ft | 374 kts | 187° |
| 2026-05-01 07:25 | 38.09452 | 19.97909 | 18485 ft | 375 kts | 183° |
| 2026-05-01 07:25 | 38.06853 | 19.98163 | 18037 ft | 375 kts | 179° |
| 2026-05-01 07:26 | 38.04267 | 19.98624 | 17588 ft | 375 kts | 175° |
| 2026-05-01 07:26 | 38.01717 | 19.99290 | 17184 ft | 374 kts | 172° |
| 2026-05-01 07:26 | 37.99209 | 20.00157 | 16778 ft | 373 kts | 168° |
| 2026-05-01 07:26 | 37.96744 | 20.01223 | 16306 ft | 374 kts | 164° |
| 2026-05-01 07:27 | 37.94345 | 20.02476 | 15933 ft | 373 kts | 160° |
| 2026-05-01 07:27 | 37.92019 | 20.03911 | 15539 ft | 372 kts | 156° |
| 2026-05-01 07:27 | 37.89766 | 20.05526 | 15120 ft | 372 kts | 153° |
| 2026-05-01 07:27 | 37.87598 | 20.07313 | 14710 ft | 372 kts | 149° |
| 2026-05-01 07:28 | 37.85521 | 20.09265 | 14298 ft | 372 kts | 145° |
| 2026-05-01 07:28 | 37.83541 | 20.11378 | 13879 ft | 372 kts | 141° |
| 2026-05-01 07:28 | 37.81670 | 20.13637 | 13416 ft | 372 kts | 137° |
| 2026-05-01 07:28 | 37.79916 | 20.16040 | 12966 ft | 368 kts | 133° |
| 2026-05-01 07:29 | 37.78325 | 20.18502 | 12572 ft | 356 kts | 129° |
| 2026-05-01 07:29 | 37.76896 | 20.20998 | 12203 ft | 347 kts | 126° |
| 2026-05-01 07:29 | 37.75609 | 20.23559 | 11813 ft | 343 kts | 120° |
| 2026-05-01 07:29 | 37.74796 | 20.26418 | 11352 ft | 350 kts | 100° |
| 2026-05-01 07:30 | 37.74585 | 20.29487 | 10935 ft | 350 kts | 90° |
| 2026-05-01 07:30 | 37.74532 | 20.32542 | 10708 ft | 343 kts | 89° |
| 2026-05-01 07:30 | 37.74509 | 20.35513 | 10569 ft | 333 kts | 89° |
| 2026-05-01 07:30 | 37.74500 | 20.38396 | 10432 ft | 325 kts | 89° |
| 2026-05-01 07:31 | 37.74500 | 20.41214 | 10281 ft | 317 kts | 88° |
| 2026-05-01 07:31 | 37.74523 | 20.49391 | 9503 ft | 311 kts | 89° |
| 2026-05-01 07:32 | 37.74440 | 20.54821 | 8757 ft | 309 kts | 98° |
| 2026-05-01 07:32 | 37.73882 | 20.57436 | 8414 ft | 301 kts | 113° |
| 2026-05-01 07:33 | 37.71659 | 20.61635 | 7848 ft | 281 kts | 137° |
| 2026-05-01 07:33 | 37.70186 | 20.63193 | 7540 ft | 272 kts | 148° |
| 2026-05-01 07:33 | 37.66858 | 20.65176 | 6989 ft | 265 kts | 162° |
| 2026-05-01 07:34 | 37.65164 | 20.66177 | 6714 ft | 273 kts | 153° |
| 2026-05-01 07:34 | 37.62005 | 20.68873 | 6108 ft | 274 kts | 142° |
| 2026-05-01 07:34 | 37.60584 | 20.70473 | 5801 ft | 273 kts | 136° |
| 2026-05-01 07:35 | 37.59290 | 20.72232 | 5502 ft | 274 kts | 130° |
| 2026-05-01 07:35 | 37.58137 | 20.74133 | 5226 ft | 272 kts | 125° |
| 2026-05-01 07:35 | 37.57148 | 20.76128 | 5073 ft | 264 kts | 119° |
| 2026-05-01 07:35 | 37.56338 | 20.78146 | 5007 ft | 251 kts | 114° |
| 2026-05-01 07:36 | 37.55703 | 20.80151 | 4772 ft | 244 kts | 109° |
| 2026-05-01 07:36 | 37.55210 | 20.82184 | 4507 ft | 242 kts | 104° |
| 2026-05-01 07:36 | 37.54856 | 20.84247 | 4252 ft | 239 kts | 99° |
| 2026-05-01 07:36 | 37.54646 | 20.86282 | 4020 ft | 236 kts | 94° |
| 2026-05-01 07:37 | 37.54619 | 20.90280 | 3647 ft | 221 kts | 85° |
| 2026-05-01 07:37 | 37.54835 | 20.92160 | 3434 ft | 213 kts | 69° |
| 2026-05-01 07:37 | 37.55644 | 20.93645 | 3182 ft | 203 kts | 36° |
| 2026-05-01 07:38 | 37.56899 | 20.94321 | 2964 ft | 196 kts | 5° |
| 2026-05-01 07:38 | 37.58236 | 20.94177 | 2838 ft | 191 kts | 346° |
| 2026-05-01 07:38 | 37.60763 | 20.93366 | 2616 ft | 186 kts | 345° |
| 2026-05-01 07:39 | 37.62012 | 20.92938 | 2431 ft | 186 kts | 344° |
| 2026-05-01 07:39 | 37.63253 | 20.92507 | 2266 ft | 184 kts | 345° |
| 2026-05-01 07:39 | 37.65655 | 20.91702 | 1820 ft | 164 kts | 345° |
| 2026-05-01 07:40 | 37.66742 | 20.91332 | 1521 ft | 160 kts | 345° |
| 2026-05-01 07:40 | 37.67813 | 20.90970 | 1338 ft | 156 kts | 345° |
| 2026-05-01 07:40 | 37.68834 | 20.90617 | 1122 ft | 149 kts | 345° |
| 2026-05-01 07:40 | 37.69822 | 20.90279 | 941 ft | 148 kts | 346° |
| 2026-05-01 07:41 | 37.70834 | 20.90011 | 796 ft | 148 kts | 345° |
| 2026-05-01 07:41 | 37.71820 | 20.89641 | 616 ft | 146 kts | 345° |
| 2026-05-01 07:41 | 37.73769 | 20.88918 | 193 ft | 148 kts | 344° |
| 2026-05-01 07:42 | 37.74714 | 20.88568 | 27 ft | 131 kts | 344° |
| 2026-05-01 07:42 | 37.75395 | 20.88313 | 25 ft | 67 kts | 343° |
| 2026-05-01 07:42 | 37.75640 | 20.88245 | 29 ft | 16 kts | 6° |
| 2026-05-01 07:42 | 37.75660 | 20.88194 | 25 ft | 9 kts | 188° |
| 2026-05-01 07:43 | 37.75596 | 20.88240 | 25 ft | 13 kts | 158° |
| 2026-05-01 07:43 | 37.75505 | 20.88279 | 27 ft | 11 kts | 141° |
| 2026-05-01 07:43 | 37.75416 | 20.88425 | 25 ft | 13 kts | 162° |
| 2026-05-01 07:44 | 37.75360 | 20.88495 | 25 ft | 5 kts | 77° |
| 2026-05-01 07:44 | 37.75369 | 20.88534 | 24 ft | 0 kts | 73° |